createdAt,value
2019-02-22T00:01:04.650Z,39.73
2019-02-22T00:03:37.971Z,40.27
2019-02-22T00:06:08.541Z,39.73
2019-02-22T00:08:43.781Z,34.83
2019-02-22T00:11:13.261Z,37.13
2019-02-22T00:13:45.926Z,38.37
2019-02-22T00:16:15.636Z,37.33
2019-02-22T00:18:45.082Z,38.17
2019-02-22T00:21:17.335Z,33.63
2019-02-22T00:23:45.070Z,33.50
2019-02-22T00:26:15.832Z,37.17
2019-02-22T00:28:43.631Z,34.67
2019-02-22T00:31:15.820Z,34.60
2019-02-22T00:33:44.504Z,36.37
2019-02-22T00:36:17.021Z,33.43
2019-02-22T00:38:46.692Z,34.17
2019-02-22T00:41:15.622Z,32.00
2019-02-22T00:43:46.569Z,29.73
2019-02-22T00:46:16.234Z,31.57
2019-02-22T00:48:45.058Z,31.90
2019-02-22T00:51:17.092Z,37.43
2019-02-22T00:53:47.923Z,32.03
2019-02-22T00:56:17.480Z,37.83
2019-02-22T00:58:46.890Z,31.20
2019-02-22T01:01:17.054Z,33.90
2019-02-22T01:03:47.474Z,34.33
2019-02-22T01:06:15.248Z,33.00
2019-02-22T01:08:44.406Z,35.13
2019-02-22T01:11:14.651Z,34.93
2019-02-22T01:13:45.906Z,34.20
2019-02-22T01:16:16.712Z,35.17
2019-02-22T01:18:47.260Z,36.00
2019-02-22T01:21:16.781Z,38.23
2019-02-22T01:23:47.041Z,31.63
2019-02-22T01:26:14.954Z,35.40
2019-02-22T01:28:46.035Z,34.37
2019-02-22T01:31:16.890Z,29.40
2019-02-22T01:33:49.587Z,31.90
2019-02-22T01:36:20.070Z,29.27
2019-02-22T01:38:49.918Z,30.00
2019-02-22T01:41:20.710Z,29.93
2019-02-22T01:43:50.886Z,33.97
2019-02-22T01:46:22.215Z,32.77
2019-02-22T01:49:00.167Z,32.50
2019-02-22T01:51:32.589Z,32.47
2019-02-22T01:54:05.982Z,31.87
2019-02-22T01:56:38.103Z,31.47
2019-02-22T01:59:09.094Z,32.80
2019-02-22T02:01:40.203Z,31.17
2019-02-22T02:04:07.807Z,33.97
2019-02-22T02:06:35.413Z,27.50
2019-02-22T02:09:04.473Z,32.07
2019-02-22T02:11:34.351Z,31.13
2019-02-22T02:14:02.001Z,31.93
2019-02-22T02:16:31.443Z,36.73
2019-02-22T02:19:01.686Z,31.73
2019-02-22T02:21:32.220Z,29.97
2019-02-22T02:23:59.807Z,37.27
2019-02-22T02:26:27.462Z,39.10
2019-02-22T02:28:55.110Z,58.87
2019-02-22T02:31:22.752Z,61.13
2019-02-22T02:33:50.339Z,60.60
2019-02-22T02:36:17.931Z,53.27
2019-02-22T02:38:45.700Z,67.90
2019-02-22T02:41:30.729Z,88.77
2019-02-22T02:44:05.777Z,72.70
2019-02-22T02:46:45.987Z,82.73
2019-02-22T02:49:31.788Z,118.70
2019-02-22T02:52:04.665Z,109.53
2019-02-22T02:54:41.302Z,110.90
2019-02-22T02:57:14.005Z,140.83
2019-02-22T02:59:47.765Z,112.87
2019-02-22T03:02:41.887Z,143.03
2019-02-22T03:05:18.137Z,134.30
2019-02-22T03:07:58.831Z,209.13
2019-02-22T03:10:44.425Z,177.37
2019-02-22T03:13:34.767Z,157.33
2019-02-22T03:16:07.428Z,151.80
2019-02-22T03:18:42.820Z,231.40
2019-02-22T03:21:16.102Z,167.87
2019-02-22T03:23:49.079Z,146.20
2019-02-22T03:26:21.173Z,221.27
2019-02-22T03:28:53.453Z,172.30
2019-02-22T03:31:21.026Z,194.50
2019-02-22T03:33:55.164Z,225.63
2019-02-22T03:36:29.559Z,170.23
2019-02-22T03:39:09.247Z,170.00
2019-02-22T03:41:59.624Z,212.67
2019-02-22T03:44:33.947Z,183.53
2019-02-22T03:47:14.363Z,247.53
2019-02-22T03:49:50.399Z,205.00
2019-02-22T03:52:30.718Z,164.23
2019-02-22T03:55:04.581Z,196.87
2019-02-22T03:57:42.901Z,187.27
2019-02-22T04:00:26.691Z,219.20
2019-02-22T04:03:03.399Z,179.30
2019-02-22T04:05:39.453Z,187.93
2019-02-22T04:08:18.141Z,162.90
2019-02-22T04:10:58.663Z,247.20
2019-02-22T04:13:31.413Z,162.30
2019-02-22T04:16:00.618Z,209.27
2019-02-22T04:18:35.688Z,228.97
2019-02-22T04:21:12.185Z,184.40
2019-02-22T04:23:50.560Z,162.57
2019-02-22T04:26:23.808Z,264.30
2019-02-22T04:28:55.954Z,284.10
2019-02-22T04:31:37.055Z,244.07
2019-02-22T04:34:09.734Z,193.20
2019-02-22T04:36:44.345Z,158.03
2019-02-22T04:39:24.907Z,241.50
2019-02-22T04:42:02.781Z,193.30
2019-02-22T04:45:03.713Z,216.30
2019-02-22T04:47:45.607Z,197.57
2019-02-22T04:50:27.491Z,283.27
2019-02-22T04:53:16.499Z,204.03
2019-02-22T04:55:56.580Z,265.63
2019-02-22T04:58:37.439Z,234.83
2019-02-22T05:01:18.986Z,158.83
2019-02-22T05:04:02.031Z,181.83
2019-02-22T05:06:45.371Z,155.23
2019-02-22T05:09:21.542Z,221.50
2019-02-22T05:11:54.597Z,251.47
2019-02-22T05:14:32.517Z,227.33
2019-02-22T05:17:07.138Z,181.30
2019-02-22T05:19:48.100Z,279.00
2019-02-22T05:22:21.381Z,224.97
2019-02-22T05:24:51.514Z,286.67
2019-02-22T05:27:21.747Z,203.60
2019-02-22T05:29:50.159Z,212.83
2019-02-22T05:32:20.927Z,256.73
2019-02-22T05:34:50.770Z,195.93
2019-02-22T05:37:21.122Z,189.50
2019-02-22T05:39:55.350Z,307.17
2019-02-22T05:42:28.671Z,189.43
2019-02-22T05:44:59.459Z,160.37
2019-02-22T05:47:34.538Z,163.53
2019-02-22T05:50:04.253Z,156.93
2019-02-22T05:52:36.806Z,343.40
2019-02-22T05:55:13.023Z,148.03
2019-02-22T05:57:48.950Z,177.87
2019-02-22T06:00:29.806Z,160.67
2019-02-22T06:03:11.019Z,260.63
2019-02-22T06:05:40.544Z,166.73
2019-02-22T06:08:27.140Z,154.20
2019-02-22T06:10:59.455Z,165.87
2019-02-22T06:13:30.703Z,191.90
2019-02-22T06:16:05.310Z,147.13
2019-02-22T06:18:33.928Z,157.90
2019-02-22T06:21:15.153Z,177.03
2019-02-22T06:23:45.793Z,182.87
2019-02-22T06:26:15.737Z,176.80
2019-02-22T06:28:57.705Z,162.77
2019-02-22T06:31:31.831Z,143.17
2019-02-22T06:34:01.542Z,166.37
2019-02-22T06:36:38.619Z,149.83
2019-02-22T06:39:11.010Z,130.23
2019-02-22T06:41:45.249Z,205.53
2019-02-22T06:44:23.745Z,273.60
2019-02-22T06:47:03.362Z,153.73
2019-02-22T06:49:37.873Z,187.63
2019-02-22T06:52:05.704Z,196.73
2019-02-22T06:54:37.201Z,165.07
2019-02-22T06:57:07.734Z,183.67
2019-02-22T06:59:38.264Z,143.13
2019-02-22T07:02:08.281Z,192.90
2019-02-22T07:04:38.897Z,180.47
2019-02-22T07:07:10.693Z,164.30
2019-02-22T07:09:38.316Z,130.53
2019-02-22T07:12:25.355Z,149.27
2019-02-22T07:14:52.961Z,156.90
2019-02-22T07:17:21.792Z,175.00
2019-02-22T07:19:49.387Z,151.47
2019-02-22T07:22:17.042Z,269.37
2019-02-22T07:24:44.633Z,343.17
2019-02-22T07:27:12.325Z,187.27
2019-02-22T07:29:39.964Z,155.63
2019-02-22T07:32:07.561Z,163.13
2019-02-22T07:34:35.111Z,166.40
2019-02-22T07:37:02.797Z,340.17
2019-02-22T07:39:32.399Z,151.17
2019-02-22T07:42:00.007Z,178.57
2019-02-22T07:44:27.595Z,209.27
2019-02-22T07:46:55.211Z,164.60
2019-02-22T07:49:26.385Z,174.80
2019-02-22T07:51:53.997Z,175.40
2019-02-22T07:54:22.697Z,185.47
2019-02-22T07:56:50.219Z,180.70
2019-02-22T07:59:17.795Z,168.00
2019-02-22T08:01:48.331Z,167.93
2019-02-22T08:04:15.989Z,154.60
2019-02-22T08:06:43.590Z,144.40
2019-02-22T08:09:11.154Z,109.33
2019-02-22T08:11:51.504Z,121.07
2019-02-22T08:14:19.221Z,128.13
2019-02-22T08:16:46.794Z,133.43
2019-02-22T08:19:14.356Z,109.63
2019-02-22T08:21:50.216Z,123.73
2019-02-22T08:24:17.851Z,126.03
2019-02-22T08:26:47.646Z,116.37
2019-02-22T08:29:15.215Z,112.20
2019-02-22T08:31:42.723Z,119.90
2019-02-22T08:34:10.280Z,115.00
2019-02-22T08:36:37.903Z,107.73
2019-02-22T08:39:05.574Z,114.40
2019-02-22T08:41:33.111Z,124.53
2019-02-22T08:44:00.607Z,99.03
2019-02-22T08:46:28.198Z,103.83
2019-02-22T08:48:55.712Z,109.47
2019-02-22T08:51:23.272Z,99.07
2019-02-22T08:53:50.895Z,100.43
2019-02-22T08:56:18.465Z,101.87
2019-02-22T08:58:51.224Z,98.03
2019-02-22T09:01:26.542Z,97.63
2019-02-22T09:03:54.224Z,109.93
2019-02-22T09:06:25.444Z,121.93
2019-02-22T09:08:53.896Z,119.50
2019-02-22T09:11:21.710Z,110.77
2019-02-22T09:13:49.519Z,106.13
2019-02-22T09:16:17.161Z,100.80
2019-02-22T09:18:44.790Z,107.20
2019-02-22T09:21:12.480Z,107.43
2019-02-22T09:23:40.312Z,103.07
2019-02-22T09:26:07.990Z,103.20
2019-02-22T09:28:35.600Z,104.13
2019-02-22T09:31:03.249Z,109.87
2019-02-22T09:33:31.290Z,110.63
2019-02-22T09:35:58.808Z,105.37
2019-02-22T09:38:27.888Z,106.70
2019-02-22T09:40:55.494Z,107.17
2019-02-22T09:43:23.101Z,108.73
2019-02-22T09:45:53.152Z,97.10
2019-02-22T09:48:20.742Z,96.30
2019-02-22T09:50:51.261Z,98.17
2019-02-22T09:53:21.790Z,103.50
2019-02-22T09:55:49.405Z,93.50
2019-02-22T09:58:19.969Z,89.93
2019-02-22T10:00:50.702Z,89.17
2019-02-22T10:03:20.995Z,92.23
2019-02-22T10:05:50.529Z,93.07
2019-02-22T10:08:18.151Z,93.87
2019-02-22T10:10:51.651Z,88.23
2019-02-22T10:13:20.527Z,90.87
2019-02-22T10:15:50.388Z,87.33
2019-02-22T10:18:23.767Z,89.27
2019-02-22T10:20:53.232Z,83.83
2019-02-22T10:23:21.142Z,86.87
2019-02-22T10:25:51.891Z,83.63
2019-02-22T10:28:19.563Z,82.07
2019-02-22T10:30:50.325Z,78.83
2019-02-22T10:33:22.373Z,75.23
2019-02-22T10:35:49.962Z,73.17
2019-02-22T10:38:21.853Z,74.23
2019-02-22T10:40:52.602Z,71.73
2019-02-22T10:43:20.762Z,76.63
2019-02-22T10:45:48.632Z,69.67
2019-02-22T10:48:16.295Z,68.90
2019-02-22T10:50:43.831Z,71.60
2019-02-22T10:53:11.476Z,70.20
2019-02-22T10:55:39.171Z,68.10
2019-02-22T10:58:12.511Z,65.80
2019-02-22T11:00:42.481Z,68.10
2019-02-22T11:03:12.893Z,66.10
2019-02-22T11:05:41.311Z,69.67
2019-02-22T11:08:13.041Z,67.40
2019-02-22T11:10:47.429Z,65.77
2019-02-22T11:13:14.075Z,65.53
2019-02-22T11:15:41.741Z,68.93
2019-02-22T11:18:15.033Z,65.43
2019-02-22T11:20:44.185Z,65.33
2019-02-22T11:23:19.527Z,67.63
2019-02-22T11:25:52.569Z,68.67
2019-02-22T11:28:28.583Z,64.10
2019-02-22T11:30:59.538Z,66.80
2019-02-22T11:33:33.201Z,66.47
2019-02-22T11:36:03.338Z,65.70
2019-02-22T11:38:35.568Z,63.60
2019-02-22T11:41:05.151Z,67.33
2019-02-22T11:43:35.993Z,68.87
2019-02-22T11:46:05.990Z,61.40
2019-02-22T11:48:33.535Z,65.53
2019-02-22T11:51:00.985Z,62.80
2019-02-22T11:53:28.549Z,58.73
2019-02-22T11:55:56.094Z,65.37
2019-02-22T11:58:24.659Z,64.57
2019-02-22T12:00:52.210Z,65.93
2019-02-22T12:03:24.606Z,66.17
2019-02-22T12:05:49.323Z,61.53
2019-02-22T12:08:16.882Z,63.90
2019-02-22T12:10:44.387Z,58.63
2019-02-22T12:13:12.013Z,62.60
2019-02-22T12:15:39.549Z,63.33
2019-02-22T12:18:09.341Z,61.73
2019-02-22T12:20:36.918Z,58.60
2019-02-22T12:23:04.478Z,57.63
2019-02-22T12:25:31.998Z,62.63
2019-02-22T12:27:59.540Z,54.77
2019-02-22T12:30:27.104Z,56.73
2019-02-22T12:32:54.679Z,54.87
2019-02-22T12:35:22.194Z,55.63
2019-02-22T12:37:49.775Z,57.13
2019-02-22T12:40:17.387Z,54.00
2019-02-22T12:42:44.943Z,55.93
2019-02-22T12:45:12.528Z,55.93
2019-02-22T12:47:40.077Z,55.17
2019-02-22T12:50:07.835Z,51.83
2019-02-22T12:52:35.480Z,53.40
2019-02-22T12:55:03.353Z,58.60
2019-02-22T12:57:30.974Z,53.60
2019-02-22T13:00:01.440Z,50.73
2019-02-22T13:02:29.134Z,54.57
2019-02-22T13:05:01.185Z,49.70
2019-02-22T13:07:32.068Z,53.37
2019-02-22T13:10:04.542Z,57.97
2019-02-22T13:12:32.155Z,48.57
2019-02-22T13:14:59.762Z,49.67
2019-02-22T13:17:31.132Z,49.03
2019-02-22T13:20:02.774Z,50.43
2019-02-22T13:22:34.172Z,52.10
2019-02-22T13:25:05.089Z,58.83
2019-02-22T13:27:38.783Z,49.90
2019-02-22T13:30:16.301Z,43.93
2019-02-22T13:32:47.163Z,47.17
2019-02-22T13:35:22.059Z,42.57
2019-02-22T13:37:49.684Z,48.03
2019-02-22T13:40:23.905Z,45.80
2019-02-22T13:42:58.340Z,51.13
2019-02-22T13:45:27.268Z,54.63
2019-02-22T13:47:58.002Z,56.87
2019-02-22T13:50:27.360Z,53.80
2019-02-22T13:52:57.609Z,53.40
2019-02-22T13:55:29.646Z,52.23
2019-02-22T13:58:03.041Z,48.80
2019-02-22T14:00:37.480Z,53.03
2019-02-22T14:03:10.962Z,56.00
2019-02-22T14:05:45.416Z,47.07
2019-02-22T14:08:19.466Z,50.70
2019-02-22T14:10:54.037Z,54.90
2019-02-22T14:13:28.061Z,50.73
2019-02-22T14:16:02.129Z,43.10
2019-02-22T14:18:31.425Z,54.43
2019-02-22T14:21:05.804Z,45.30
2019-02-22T14:23:35.796Z,44.13
2019-02-22T14:26:07.486Z,46.83
2019-02-22T14:28:39.902Z,47.10
2019-02-22T14:31:13.309Z,40.20
2019-02-22T14:33:41.092Z,41.63
2019-02-22T14:36:13.811Z,39.77
2019-02-22T14:38:43.021Z,41.73
2019-02-22T14:41:21.902Z,39.03
2019-02-22T14:43:52.709Z,35.73
2019-02-22T14:46:25.919Z,38.63
2019-02-22T14:48:53.572Z,38.40
2019-02-22T14:51:23.770Z,31.40
2019-02-22T14:53:53.396Z,30.53
2019-02-22T14:56:22.474Z,25.10
2019-02-22T14:58:50.222Z,30.73
2019-02-22T15:01:18.049Z,26.37
2019-02-22T15:03:48.478Z,26.57
2019-02-22T15:06:18.443Z,25.00
2019-02-22T15:08:50.138Z,26.13
2019-02-22T15:11:20.069Z,24.33
2019-02-22T15:13:51.279Z,24.80
2019-02-22T15:16:44.337Z,24.47
2019-02-22T15:19:55.200Z,25.97
2019-02-22T15:22:24.167Z,23.13
2019-02-22T15:24:53.813Z,25.83
2019-02-22T15:27:26.597Z,24.77
2019-02-22T15:29:54.791Z,25.30
2019-02-22T15:32:22.383Z,26.63
2019-02-22T15:34:50.048Z,28.20
2019-02-22T15:37:17.701Z,27.47
2019-02-22T15:39:45.327Z,27.67
2019-02-22T15:42:14.989Z,24.00
2019-02-22T15:44:42.762Z,24.83
2019-02-22T15:47:14.654Z,29.63
2019-02-22T15:49:42.504Z,26.67
2019-02-22T15:52:12.735Z,26.97
2019-02-22T15:54:42.237Z,24.00
2019-02-22T15:57:09.869Z,27.87
2019-02-22T15:59:41.870Z,27.90
2019-02-22T16:02:09.405Z,28.37
2019-02-22T16:05:10.335Z,28.60
2019-02-22T16:07:45.100Z,29.17
2019-02-22T16:10:16.135Z,28.30
2019-02-22T16:12:46.913Z,32.03
2019-02-22T16:15:17.453Z,31.17
2019-02-22T16:17:47.221Z,31.37
2019-02-22T16:20:15.028Z,31.63
2019-02-22T16:22:43.597Z,32.27
2019-02-22T16:25:19.571Z,32.37
2019-02-22T16:27:44.490Z,33.73
2019-02-22T16:30:14.022Z,34.20
2019-02-22T16:32:48.921Z,33.23
2019-02-22T16:35:26.289Z,32.67
2019-02-22T16:38:00.595Z,37.70
2019-02-22T16:40:29.353Z,35.63
2019-02-22T16:43:02.326Z,33.37
2019-02-22T16:45:37.536Z,32.83
2019-02-22T16:48:10.253Z,35.50
2019-02-22T16:50:43.075Z,33.97
2019-02-22T16:53:18.131Z,35.10
2019-02-22T16:56:35.903Z,35.97
2019-02-22T16:59:17.525Z,36.33
2019-02-22T17:04:40.013Z,37.43
2019-02-22T17:07:11.943Z,35.23
2019-02-22T17:09:42.363Z,37.27
2019-02-22T17:12:20.009Z,32.00
2019-02-22T17:15:05.766Z,37.17
2019-02-22T17:17:36.460Z,34.67
2019-02-22T17:20:04.598Z,42.80
2019-02-22T17:22:32.172Z,38.03
2019-02-22T17:25:05.792Z,36.30
2019-02-22T17:27:35.638Z,40.57
2019-02-22T17:30:04.918Z,37.30
2019-02-22T17:32:35.447Z,38.10
2019-02-22T17:35:09.379Z,39.90
2019-02-22T17:37:37.098Z,40.40
2019-02-22T17:40:10.485Z,46.80
2019-02-22T17:42:46.052Z,39.77
2019-02-22T17:45:16.780Z,40.10
2019-02-22T17:47:47.230Z,39.00
2019-02-22T17:50:19.633Z,41.93
2019-02-22T17:52:47.626Z,40.30
2019-02-22T17:55:23.197Z,39.87
2019-02-22T17:57:48.267Z,38.57
2019-02-22T18:00:20.109Z,41.70
2019-02-22T18:03:17.352Z,37.87
2019-02-22T18:05:46.830Z,45.23
2019-02-22T18:08:16.529Z,46.10
2019-02-22T18:10:46.412Z,47.07
2019-02-22T18:13:15.998Z,47.17
2019-02-22T18:15:43.620Z,49.80
2019-02-22T18:18:24.378Z,51.07
2019-02-22T18:20:58.300Z,52.43
2019-02-22T18:23:28.284Z,43.00
2019-02-22T18:25:56.612Z,51.83
2019-02-22T18:28:30.958Z,46.27
2019-02-22T18:30:59.895Z,49.67
2019-02-22T18:33:33.643Z,47.73
2019-02-22T18:36:49.866Z,47.77
2019-02-22T18:39:20.521Z,48.67
2019-02-22T18:41:49.165Z,42.00
2019-02-22T18:44:19.854Z,42.93
2019-02-22T18:46:50.548Z,38.53
2019-02-22T18:49:18.216Z,38.10
2019-02-22T18:51:45.902Z,40.73
2019-02-22T18:54:13.473Z,41.93
2019-02-22T18:56:41.025Z,39.00
2019-02-22T18:59:08.659Z,40.47
2019-02-22T19:01:36.360Z,37.23
2019-02-22T19:04:05.127Z,38.70
2019-02-22T19:06:32.768Z,45.97
2019-02-22T19:09:00.410Z,43.10
2019-02-22T19:11:28.102Z,42.70
2019-02-22T19:13:58.563Z,41.93
2019-02-22T19:16:28.130Z,44.03
2019-02-22T19:19:39.092Z,42.97
2019-02-22T19:22:08.880Z,39.73
2019-02-22T19:24:39.218Z,40.97
2019-02-22T19:27:18.355Z,42.03
2019-02-22T19:31:09.229Z,39.27
2019-02-22T19:37:25.496Z,46.37
2019-02-22T19:39:59.794Z,45.37
2019-02-22T19:42:36.602Z,47.77
2019-02-22T19:45:04.406Z,47.97
2019-02-22T19:47:59.159Z,41.37
2019-02-22T19:50:50.192Z,48.03
2019-02-22T19:53:17.858Z,47.90
2019-02-22T19:55:45.522Z,46.70
2019-02-22T19:58:15.899Z,44.30
2019-02-22T20:00:47.494Z,46.53
2019-02-22T20:03:18.805Z,45.27
2019-02-22T20:05:51.623Z,46.33
2019-02-22T20:08:23.523Z,47.07
2019-02-22T20:10:52.432Z,45.83
2019-02-22T20:13:31.536Z,48.50
2019-02-22T20:15:59.176Z,49.57
2019-02-22T20:18:28.485Z,47.20
2019-02-22T20:21:01.955Z,47.57
2019-02-22T20:23:32.212Z,47.93
2019-02-22T20:26:08.903Z,46.70
2019-02-22T20:28:43.457Z,47.10
2019-02-22T20:31:19.940Z,51.07
2019-02-22T20:33:48.943Z,49.27
2019-02-22T20:36:28.098Z,49.17
2019-02-22T20:38:50.071Z,44.57
2019-02-22T20:41:17.848Z,47.20
2019-02-22T20:43:47.871Z,49.30
2019-02-22T20:46:16.004Z,49.53
2019-02-22T20:48:43.877Z,46.80
2019-02-22T20:51:11.468Z,47.77
2019-02-22T20:53:39.137Z,49.60
2019-02-22T20:56:06.687Z,49.27
2019-02-22T20:58:34.332Z,46.77
2019-02-22T21:01:01.920Z,52.40
2019-02-22T21:03:29.452Z,52.63
2019-02-22T21:05:57.060Z,53.40
2019-02-22T21:08:24.922Z,54.07
2019-02-22T21:10:52.497Z,51.70
2019-02-22T21:13:20.122Z,59.73
2019-02-22T21:15:48.065Z,52.53
2019-02-22T21:18:16.623Z,51.07
2019-02-22T21:20:44.335Z,55.23
2019-02-22T21:23:11.966Z,56.53
2019-02-22T21:25:39.527Z,56.80
2019-02-22T21:28:08.279Z,58.03
2019-02-22T21:30:35.865Z,57.43
2019-02-22T21:33:03.502Z,60.83
2019-02-22T21:35:31.511Z,58.23
2019-02-22T21:38:06.340Z,62.10
2019-02-22T21:40:36.371Z,56.43
2019-02-22T21:43:05.638Z,57.17
2019-02-22T21:45:33.354Z,61.17
2019-02-22T21:48:01.017Z,63.27
2019-02-22T21:50:28.709Z,60.07
2019-02-22T21:52:56.507Z,61.20
2019-02-22T21:55:24.056Z,65.70
2019-02-22T21:57:55.156Z,61.37
2019-02-22T22:00:22.839Z,65.80
2019-02-22T22:02:53.320Z,61.30
2019-02-22T22:05:22.734Z,61.53
2019-02-22T22:07:53.524Z,58.53
2019-02-22T22:10:21.088Z,61.17
2019-02-22T22:12:48.690Z,63.50
2019-02-22T22:15:16.992Z,63.37
2019-02-22T22:17:45.680Z,60.23
2019-02-22T22:20:14.631Z,65.33
2019-02-22T22:22:42.330Z,68.13
2019-02-22T22:25:10.074Z,63.13
2019-02-22T22:27:37.802Z,64.53
2019-02-22T22:30:06.567Z,62.73
2019-02-22T22:32:34.282Z,66.67
2019-02-22T22:35:02.026Z,64.60
2019-02-22T22:37:29.688Z,64.23
2019-02-22T22:39:57.264Z,73.23
2019-02-22T22:42:24.877Z,64.93
2019-02-22T22:44:52.452Z,65.50
2019-02-22T22:47:20.529Z,73.60
2019-02-22T22:49:48.064Z,68.63
2019-02-22T22:52:15.652Z,65.20
2019-02-22T22:54:43.275Z,71.07
2019-02-22T22:57:17.000Z,68.90
2019-02-22T22:59:45.557Z,68.67
2019-02-22T23:02:15.100Z,75.27
2019-02-22T23:04:42.886Z,66.40
2019-02-22T23:07:10.648Z,68.00
2019-02-22T23:09:38.352Z,66.67
2019-02-22T23:12:06.124Z,68.33
2019-02-22T23:14:33.925Z,66.17
2019-02-22T23:17:01.715Z,64.57
2019-02-22T23:19:29.487Z,62.03
2019-02-22T23:22:00.246Z,66.73
2019-02-22T23:24:27.940Z,67.43
2019-02-22T23:26:58.188Z,63.83
2019-02-22T23:29:25.810Z,61.53
2019-02-22T23:31:53.370Z,62.27
2019-02-22T23:34:21.010Z,65.87
2019-02-22T23:36:51.765Z,60.60
2019-02-22T23:39:22.010Z,62.60
2019-02-22T23:41:49.769Z,63.83
2019-02-22T23:44:20.510Z,67.27
2019-02-22T23:46:49.506Z,66.67
2019-02-22T23:49:17.048Z,61.97
2019-02-22T23:51:44.734Z,57.07
2019-02-22T23:54:12.397Z,65.37
2019-02-22T23:56:39.986Z,67.03
2019-02-22T23:59:07.609Z,65.50
